Time;durP1;ratioP1;P1;durP2;ratioP2;P2;SDS_P1;SDS_P2;PMS_P1;PMS_P2;Temp;Humidity;BMP_temperature;BMP_pressure;BME280_temperature;BME280_humidity;BME280_pressure;Samples;Min_cycle;Max_cycle;Signal;HPM_P1;HPM_P2
2022/10/14 00:01:30;;;;;;;74.00;42.28;;;;;;;14.03;100.00;101238.94;6132648;23;20089;-73
2022/10/14 00:03:55;;;;;;;72.82;41.97;;;;;;;13.82;100.00;101236.75;6132243;23;20017;-73
2022/10/14 00:06:39;;;;;;;91.63;44.30;;;;;;;13.94;100.00;101228.22;6106192;23;20005;-73
2022/10/14 00:09:08;;;;;;;80.68;44.55;;;;;;;14.19;100.00;101227.16;6106857;23;20049;-73
2022/10/14 00:11:36;;;;;;;83.95;44.13;;;;;;;14.03;100.00;101232.66;6105513;23;20033;-73
2022/10/14 00:14:05;;;;;;;73.90;42.30;;;;;;;14.13;100.00;101227.84;6105886;23;20001;-73
2022/10/14 00:16:34;;;;;;;73.85;40.47;;;;;;;14.18;100.00;101228.19;6131616;23;20010;-73
2022/10/14 00:19:00;;;;;;;80.75;45.58;;;;;;;13.91;100.00;101229.41;6105901;23;20014;-73
2022/10/14 00:21:27;;;;;;;80.80;45.55;;;;;;;13.87;100.00;101227.19;6105180;23;20002;-73
2022/10/14 00:23:52;;;;;;;92.03;45.13;;;;;;;13.94;100.00;101228.22;6132731;23;20005;-73
2022/10/14 00:26:25;;;;;;;81.93;45.67;;;;;;;14.04;100.00;101218.00;6106048;23;20044;-74
2022/10/14 00:28:51;;;;;;;79.10;42.33;;;;;;;14.21;100.00;101225.09;6132305;23;20006;-73
2022/10/14 00:31:17;;;;;;;83.05;44.97;;;;;;;14.25;100.00;101226.47;6106593;23;20005;-73
2022/10/14 00:33:43;;;;;;;76.70;42.00;;;;;;;14.26;100.00;101221.88;6106903;23;20096;-74
2022/10/14 00:36:11;;;;;;;79.93;43.83;;;;;;;14.18;100.00;101220.00;6106454;23;20010;-74
2022/10/14 00:38:36;;;;;;;83.50;42.30;;;;;;;14.29;100.00;101221.53;6106371;23;20438;-74
2022/10/14 00:41:02;;;;;;;76.40;40.70;;;;;;;13.98;100.00;101226.84;6131802;23;19998;-73
2022/10/14 00:43:28;;;;;;;80.75;44.47;;;;;;;14.15;100.00;101231.28;6106513;23;20028;-73
2022/10/14 00:45:54;;;;;;;90.40;46.53;;;;;;;14.01;100.00;101229.22;6106322;23;20006;-73
2022/10/14 00:48:24;;;;;;;88.18;44.28;;;;;;;14.09;100.00;101226.50;6132085;23;20009;-73
2022/10/14 00:50:53;;;;;;;84.07;43.83;;;;;;;14.01;100.00;101231.94;6105755;23;20002;-74
2022/10/14 00:53:19;;;;;;;78.82;42.15;;;;;;;14.09;100.00;101221.91;6131817;23;20049;-73
2022/10/14 00:55:45;;;;;;;92.45;46.88;;;;;;;13.76;100.00;101231.97;6106050;23;20002;-74
2022/10/14 00:58:11;;;;;;;103.85;48.95;;;;;;;13.63;100.00;101236.19;6131746;23;20080;-73
2022/10/14 01:00:37;;;;;;;94.53;48.03;;;;;;;13.55;100.00;101231.63;6105651;23;20006;-73
2022/10/14 01:03:08;;;;;;;89.07;49.47;;;;;;;13.68;100.00;101234.69;6106165;23;20002;-73
2022/10/14 01:05:45;;;;;;;92.13;46.65;;;;;;;13.72;100.00;101230.59;6133748;23;20009;-73
2022/10/14 01:08:21;;;;;;;86.82;45.95;;;;;;;13.74;100.00;101228.56;6108412;23;20354;-73
2022/10/14 01:11:01;;;;;;;93.15;47.42;;;;;;;13.75;100.00;101213.94;6107929;23;20001;-73
2022/10/14 01:13:41;;;;;;;83.72;44.78;;;;;;;13.76;100.00;101215.66;6108147;23;20417;-73
2022/10/14 01:16:17;;;;;;;95.03;46.60;;;;;;;13.68;100.00;101217.50;6107407;23;20001;-73
2022/10/14 01:19:05;;;;;;;91.15;46.35;;;;;;;13.81;100.00;101210.53;6133710;23;20001;-74
2022/10/14 01:21:40;;;;;;;85.47;42.13;;;;;;;14.14;100.00;101213.19;6107382;23;20002;-73
2022/10/14 01:24:21;;;;;;;90.03;44.90;;;;;;;14.28;100.00;101209.78;6133920;23;20006;-73
2022/10/14 01:27:18;;;;;;;92.73;45.37;;;;;;;14.25;100.00;101210.13;6107868;23;20012;-73
2022/10/14 01:29:55;;;;;;;85.75;43.15;;;;;;;14.04;100.00;101212.56;6133974;23;20006;-73
2022/10/14 01:32:32;;;;;;;92.45;45.42;;;;;;;14.07;100.00;101206.75;6107029;23;20014;-73
2022/10/14 01:35:05;;;;;;;95.65;46.30;;;;;;;14.07;100.00;101204.88;6106916;23;20017;-73
2022/10/14 01:37:35;;;;;;;93.10;47.05;;;;;;;13.88;100.00;101201.69;6107295;23;20008;-73
2022/10/14 01:40:11;;;;;;;89.85;43.92;;;;;;;13.91;100.00;101201.34;6106893;23;19998;-73
2022/10/14 01:42:40;;;;;;;81.65;43.38;;;;;;;13.85;100.00;101203.72;6106968;23;20006;-73
2022/10/14 01:45:18;;;;;;;99.53;46.33;;;;;;;13.88;100.00;101191.63;6106881;23;20002;-73
2022/10/14 01:47:48;;;;;;;97.00;48.13;;;;;;;13.85;100.00;101203.72;6106036;23;20010;-72
2022/10/14 01:50:17;;;;;;;87.70;42.63;;;;;;;14.04;100.00;101201.66;6106560;23;20125;-73
2022/10/14 01:53:00;;;;;;;96.05;46.80;;;;;;;14.04;100.00;101201.66;6132629;23;20013;-73
2022/10/14 01:55:30;;;;;;;103.95;48.40;;;;;;;13.82;100.00;101195.91;6106936;23;20002;-73
2022/10/14 01:57:57;;;;;;;100.22;49.42;;;;;;;13.81;100.00;101180.59;6106957;23;20006;-73
2022/10/14 02:00:23;;;;;;;83.28;44.17;;;;;;;13.98;100.00;101186.88;6107178;23;20013;-73
2022/10/14 02:02:48;;;;;;;90.18;44.15;;;;;;;13.88;100.00;101185.34;6106860;23;20018;-73
2022/10/14 02:05:21;;;;;;;89.47;43.30;;;;;;;13.83;100.00;101184.00;6133261;23;20056;-72
2022/10/14 02:08:19;;;;;;;103.90;49.75;;;;;;;13.81;100.00;101196.91;6106900;23;20009;-72
2022/10/14 02:11:16;;;;;;;95.47;45.53;;;;;;;13.66;100.00;101182.31;6108980;23;20002;-73
2022/10/14 02:13:48;;;;;;;98.22;46.58;;;;;;;13.94;100.00;101185.50;6107429;23;20005;-73
2022/10/14 02:16:23;;;;;;;88.22;43.08;;;;;;;13.98;100.00;101178.69;6106623;23;20010;-73
2022/10/14 02:19:36;;;;;;;92.93;46.30;;;;;;;13.90;100.00;101183.31;6133201;23;20081;-73
2022/10/14 02:22:05;;;;;;;92.00;45.92;;;;;;;13.83;100.00;101183.16;6087770;23;20017;-73
2022/10/14 02:24:36;;;;;;;102.03;46.75;;;;;;;13.99;100.00;101171.38;6107173;23;20004;-73
2022/10/14 02:27:07;;;;;;;99.23;48.97;;;;;;;14.08;100.00;101170.31;6131948;23;20078;-73
2022/10/14 02:29:35;;;;;;;;;;;;;;;13.98;100.00;101177.84;6107406;23;20089;-73
2022/10/14 02:32:03;;;;;;;105.25;47.42;;;;;;;13.80;100.00;101173.44;6106586;23;19928;-73
2022/10/14 02:34:30;;;;;;;98.07;45.40;;;;;;;13.71;100.00;101179.94;6106797;23;20002;-72
2022/10/14 02:36:55;;;;;;;88.32;42.55;;;;;;;13.69;100.00;101178.38;6105628;23;20098;-73
2022/10/14 02:39:35;;;;;;;101.57;48.28;;;;;;;13.72;100.00;101176.19;6107046;23;20089;-73
2022/10/14 02:42:00;;;;;;;95.15;43.47;;;;;;;13.66;100.00;101179.59;6106211;23;20295;-72
2022/10/14 02:44:26;;;;;;;94.00;47.05;;;;;;;13.80;100.00;101178.03;6106593;23;20026;-72
2022/10/14 02:46:55;;;;;;;90.30;43.72;;;;;;;13.90;100.00;101183.31;6105618;23;20002;-73
2022/10/14 02:49:20;;;;;;;93.15;45.70;;;;;;;13.91;100.00;101179.56;6106691;23;19997;-73
2022/10/14 02:51:46;;;;;;;92.93;44.63;;;;;;;13.97;100.00;101178.88;6106198;23;20037;-73
2022/10/14 02:54:11;;;;;;;94.63;46.30;;;;;;;13.95;100.00;101180.91;6123004;23;20037;-73
2022/10/14 02:56:36;;;;;;;100.47;47.30;;;;;;;13.78;100.00;101180.94;6130785;23;20068;-72
2022/10/14 02:59:02;;;;;;;93.05;46.55;;;;;;;13.82;100.00;101179.59;6132152;23;20006;-73
2022/10/14 03:01:27;;;;;;;103.68;49.83;;;;;;;13.79;100.00;101177.19;6130511;23;20002;-73
2022/10/14 03:03:53;;;;;;;107.50;47.25;;;;;;;13.66;100.00;101181.47;6130785;23;20160;-72
2022/10/14 03:06:18;;;;;;;109.43;51.35;;;;;;;13.85;100.00;101176.50;6130572;23;20013;-73
2022/10/14 03:08:43;;;;;;;100.20;46.97;;;;;;;13.76;100.00;101172.09;6130763;23;20006;-72
2022/10/14 03:11:09;;;;;;;112.20;50.15;;;;;;;13.81;100.00;101177.00;6130583;23;20006;-73
2022/10/14 03:13:34;;;;;;;100.88;47.38;;;;;;;13.74;100.00;101168.69;6131957;23;20049;-72
2022/10/14 03:15:59;;;;;;;97.03;47.00;;;;;;;13.78;100.00;101164.63;6130545;23;20001;-73
2022/10/14 03:18:25;;;;;;;107.15;49.08;;;;;;;13.65;100.00;101169.72;6130237;23;20005;-73
2022/10/14 03:20:51;;;;;;;113.68;53.38;;;;;;;13.58;100.00;101174.16;6130526;23;20002;-73
2022/10/14 03:23:16;;;;;;;112.82;51.63;;;;;;;13.71;100.00;101169.03;6130658;23;20060;-73
2022/10/14 03:25:45;;;;;;;109.80;47.25;;;;;;;13.80;100.00;101165.28;6131458;23;19998;-73
2022/10/14 03:28:11;;;;;;;119.35;52.67;;;;;;;13.85;100.00;101165.63;6131946;23;20082;-73
2022/10/14 03:30:37;;;;;;;109.32;50.47;;;;;;;13.67;100.00;101159.50;6132066;23;20045;-73
2022/10/14 03:33:03;;;;;;;120.03;54.17;;;;;;;13.73;100.00;101167.00;6130107;23;20021;-73
2022/10/14 03:35:28;;;;;;;104.15;46.92;;;;;;;13.99;100.00;101161.34;6130359;23;20037;-73
2022/10/14 03:37:54;;;;;;;105.78;47.30;;;;;;;13.89;100.00;101159.81;6130855;23;20006;-73
2022/10/14 03:40:20;;;;;;;95.38;46.22;;;;;;;14.04;100.00;101169.84;6130675;23;20006;-73
2022/10/14 03:42:46;;;;;;;103.75;50.40;;;;;;;14.11;100.00;101170.00;6129801;23;20014;-72
2022/10/14 03:45:11;;;;;;;110.55;51.30;;;;;;;14.07;100.00;101152.28;6131681;23;20053;-72
2022/10/14 03:47:37;;;;;;;112.68;51.85;;;;;;;14.22;100.00;101166.91;6130014;23;20002;-72
2022/10/14 03:50:03;;;;;;;103.88;51.03;;;;;;;14.18;100.00;101165.53;6132379;23;20002;-72
2022/10/14 03:52:29;;;;;;;107.28;47.22;;;;;;;14.14;100.00;101161.47;6128838;23;20005;-73
2022/10/14 03:54:55;;;;;;;95.72;46.17;;;;;;;14.14;100.00;101164.19;6131894;23;19998;-73
2022/10/14 03:57:20;;;;;;;98.30;48.42;;;;;;;14.20;100.00;101158.03;6106222;23;20013;-73
2022/10/14 03:59:46;;;;;;;94.70;48.90;;;;;;;14.29;100.00;101162.47;6106189;23;20056;-72
2022/10/14 04:02:11;;;;;;;107.70;49.85;;;;;;;14.18;100.00;101154.66;6105476;23;20033;-73
2022/10/14 04:04:36;;;;;;;108.22;50.30;;;;;;;13.95;100.00;101159.13;6105412;23;20013;-72
2022/10/14 04:07:02;;;;;;;118.88;52.38;;;;;;;13.94;100.00;101160.16;6106132;23;20006;-72
2022/10/14 04:09:28;;;;;;;120.82;53.13;;;;;;;13.94;100.00;101157.44;6130763;23;20045;-73
2022/10/14 04:11:55;;;;;;;113.57;51.05;;;;;;;13.95;100.00;101153.69;6104471;23;20060;-73
2022/10/14 04:14:22;;;;;;;114.72;51.17;;;;;;;13.83;100.00;101162.22;6130212;23;20006;-73
2022/10/14 04:16:47;;;;;;;116.55;50.08;;;;;;;13.89;100.00;101157.09;6103898;23;20009;-72
2022/10/14 04:19:13;;;;;;;121.60;52.90;;;;;;;13.83;100.00;101156.78;6104430;23;20009;-73
2022/10/14 04:21:38;;;;;;;94.93;46.03;;;;;;;13.82;100.00;101149.66;6129902;23;20025;-72
2022/10/14 04:24:03;;;;;;;108.07;50.53;;;;;;;14.00;100.00;101152.13;6130083;23;20006;-73
2022/10/14 04:26:29;;;;;;;113.75;51.53;;;;;;;14.14;100.00;101147.84;6130388;23;20028;-74
2022/10/14 04:28:54;;;;;;;116.80;51.45;;;;;;;14.18;100.00;101143.75;6130346;23;20026;-73
2022/10/14 04:31:21;;;;;;;125.82;52.33;;;;;;;14.15;100.00;101146.84;6130360;23;20048;-72
2022/10/14 04:33:47;;;;;;;139.25;54.95;;;;;;;13.91;100.00;101141.47;6104204;23;20060;-73
2022/10/14 04:36:12;;;;;;;131.55;51.33;;;;;;;13.85;100.00;101138.41;6105225;23;20005;-73
2022/10/14 04:38:37;;;;;;;130.68;53.17;;;;;;;13.85;100.00;101138.41;6129735;23;20049;-73
2022/10/14 04:41:03;;;;;;;146.60;56.28;;;;;;;13.71;100.00;101125.50;6129566;23;20005;-73
2022/10/14 04:43:28;;;;;;;161.98;58.45;;;;;;;13.55;100.00;101125.50;6104318;23;20006;-73
2022/10/14 04:45:54;;;;;;;150.43;58.33;;;;;;;13.50;100.00;101127.91;6104144;23;20002;-72
2022/10/14 04:48:19;;;;;;;148.63;58.15;;;;;;;13.33;100.00;101131.66;6130402;23;20008;-73
2022/10/14 04:50:45;;;;;;;182.73;62.33;;;;;;;13.33;100.00;101126.22;6130404;23;20068;-72
2022/10/14 04:53:10;;;;;;;155.98;59.78;;;;;;;13.30;100.00;101133.69;6129621;23;20025;-73
2022/10/14 04:55:36;;;;;;;163.25;58.38;;;;;;;13.32;100.00;101130.81;6104223;23;20033;-73
2022/10/14 04:58:02;;;;;;;187.07;63.58;;;;;;;13.15;100.00;101129.91;6104300;23;20329;-73
2022/10/14 05:00:28;;;;;;;180.80;62.25;;;;;;;13.30;100.00;101133.69;6104403;23;20006;-73
2022/10/14 05:02:53;;;;;;;170.52;59.80;;;;;;;13.35;100.00;101124.16;6103900;23;20012;-73
2022/10/14 05:05:18;;;;;;;189.20;63.40;;;;;;;13.34;100.00;101127.91;6104167;23;20002;-73
2022/10/14 05:07:44;;;;;;;194.02;63.70;;;;;;;13.20;100.00;101134.84;6103324;23;20013;-73
2022/10/14 05:10:09;;;;;;;213.50;68.72;;;;;;;13.29;100.00;101126.53;6130237;23;19998;-74
2022/10/14 05:12:36;;;;;;;192.63;63.75;;;;;;;13.32;100.00;101119.06;6105095;23;20014;-74
2022/10/14 05:15:04;;;;;;;184.90;63.17;;;;;;;13.34;100.00;101122.47;6105180;23;20012;-74
2022/10/14 05:17:29;;;;;;;228.02;67.97;;;;;;;13.21;100.00;101118.38;6131273;23;19998;-74
2022/10/14 05:19:55;;;;;;;188.90;60.95;;;;;;;13.25;100.00;101125.19;6105202;23;20085;-73
2022/10/14 05:22:20;;;;;;;189.63;61.88;;;;;;;13.39;100.00;101128.25;6105447;23;20006;-73
2022/10/14 05:24:46;;;;;;;200.88;62.75;;;;;;;13.37;100.00;101127.59;6105443;23;19998;-74
2022/10/14 05:27:11;;;;;;;187.00;63.35;;;;;;;13.24;100.00;101123.50;6104685;23;20006;-74
2022/10/14 05:29:36;;;;;;;221.85;63.75;;;;;;;13.21;100.00;101112.94;6105146;23;20014;-73
2022/10/14 05:32:02;;;;;;;191.68;63.05;;;;;;;13.30;100.00;101117.38;6105666;23;20009;-74
2022/10/14 05:34:27;;;;;;;240.05;70.43;;;;;;;13.39;100.00;101114.66;6106187;23;20009;-74
2022/10/14 05:36:52;;;;;;;222.23;65.35;;;;;;;13.46;100.00;101127.41;6131442;23;20005;-73
2022/10/14 05:39:18;;;;;;;217.68;63.53;;;;;;;13.45;100.00;101127.56;6105088;23;19998;-73
2022/10/14 05:41:43;;;;;;;191.98;58.53;;;;;;;13.54;100.00;101118.38;6105268;23;20006;-74
2022/10/14 05:44:12;;;;;;;207.85;62.67;;;;;;;13.50;100.00;101122.47;6131004;23;20065;-73
2022/10/14 05:46:37;;;;;;;200.27;62.15;;;;;;;13.44;100.00;101128.59;6105004;23;20060;-73
2022/10/14 05:49:04;;;;;;;236.82;67.35;;;;;;;13.46;100.00;101126.56;6106435;23;20006;-74
2022/10/14 05:51:33;;;;;;;238.98;67.25;;;;;;;13.39;100.00;101115.50;6106745;23;20052;-73
2022/10/14 05:53:59;;;;;;;241.45;68.40;;;;;;;13.36;100.00;101120.41;6131845;23;20002;-73
2022/10/14 05:56:24;;;;;;;243.02;70.32;;;;;;;13.45;100.00;101119.41;6106034;23;20006;-73
2022/10/14 05:58:49;;;;;;;252.02;69.05;;;;;;;13.43;100.00;101116.00;6132727;23;20006;-74
2022/10/14 06:01:15;;;;;;;234.27;66.35;;;;;;;13.29;100.00;101125.69;6106403;23;20010;-74
2022/10/14 06:03:41;;;;;;;223.13;65.70;;;;;;;13.27;100.00;101125.88;6106260;23;20009;-73
2022/10/14 06:06:10;;;;;;;229.10;63.15;;;;;;;13.46;100.00;101121.09;6106259;23;20013;-73
2022/10/14 06:08:35;;;;;;;228.50;65.78;;;;;;;13.45;100.00;101119.41;6105665;23;20033;-73
2022/10/14 06:11:03;;;;;;;227.30;63.65;;;;;;;13.38;100.00;101123.84;6105950;23;20002;-73
2022/10/14 06:13:29;;;;;;;220.63;63.05;;;;;;;13.20;100.00;101116.69;6131170;23;20005;-73
2022/10/14 06:15:54;;;;;;;188.98;60.17;;;;;;;13.29;100.00;101123.81;6106099;23;20009;-73
2022/10/14 06:18:20;;;;;;;201.50;61.53;;;;;;;13.33;100.00;101120.78;6131528;23;20096;-74
2022/10/14 06:20:53;;;;;;;194.13;59.95;;;;;;;13.33;100.00;101120.78;6106941;23;20009;-74
2022/10/14 06:23:18;;;;;;;187.60;59.00;;;;;;;13.28;100.00;101113.97;6106301;23;19998;-73
2022/10/14 06:25:43;;;;;;;181.02;61.03;;;;;;;13.25;100.00;101114.31;6106483;23;20025;-73
2022/10/14 06:28:09;;;;;;;193.18;61.95;;;;;;;13.48;100.00;101113.63;6106233;23;20009;-73
2022/10/14 06:30:34;;;;;;;195.35;64.03;;;;;;;13.37;100.00;101111.25;6132597;23;19998;-73
2022/10/14 06:33:00;;;;;;;168.50;58.75;;;;;;;13.33;100.00;101120.78;6106100;23;20032;-73
2022/10/14 06:35:25;;;;;;;190.50;62.38;;;;;;;13.14;100.00;101111.91;6106007;23;20012;-73
2022/10/14 06:37:50;;;;;;;171.27;58.85;;;;;;;13.30;100.00;101106.50;6105942;23;20002;-73
2022/10/14 06:40:16;;;;;;;180.48;61.13;;;;;;;13.18;100.00;101118.72;6105161;23;20444;-74
2022/10/14 06:42:41;;;;;;;170.07;63.13;;;;;;;13.20;100.00;101122.13;6106885;23;20009;-74
2022/10/14 06:45:07;;;;;;;158.73;58.85;;;;;;;13.37;100.00;101111.25;6133893;23;20088;-73
2022/10/14 06:47:32;;;;;;;167.30;61.33;;;;;;;13.48;100.00;101119.06;6133516;23;20006;-74
2022/10/14 06:49:58;;;;;;;154.50;59.22;;;;;;;13.45;100.00;101108.53;6108068;23;20010;-74
2022/10/14 06:52:24;;;;;;;133.90;53.17;;;;;;;13.46;100.00;101107.50;6107633;23;20002;-74
2022/10/14 06:54:49;;;;;;;160.20;58.97;;;;;;;13.46;100.00;101111.06;6106027;23;20445;-73
2022/10/14 06:57:15;;;;;;;152.02;57.90;;;;;;;13.56;100.00;101116.31;6131378;23;20357;-74
2022/10/14 06:59:41;;;;;;;138.48;57.00;;;;;;;13.64;100.00;101112.78;6106507;23;20009;-74
2022/10/14 07:02:06;;;;;;;150.40;58.70;;;;;;;13.72;100.00;101099.97;6107201;23;20006;-73
2022/10/14 07:04:31;;;;;;;146.98;61.88;;;;;;;13.45;100.00;101103.09;6098506;23;20088;-74
2022/10/14 07:06:57;;;;;;;128.75;57.17;;;;;;;13.56;100.00;101110.88;6128284;23;20421;-73
2022/10/14 07:09:23;;;;;;;130.45;55.08;;;;;;;13.62;100.00;101107.47;6101336;23;20052;-74
2022/10/14 07:11:49;;;;;;;127.20;55.80;;;;;;;13.81;100.00;101109.81;6127133;23;20001;-73
2022/10/14 07:14:14;;;;;;;132.23;55.67;;;;;;;13.59;100.00;101110.56;6128049;23;20010;-73
2022/10/14 07:16:42;;;;;;;132.48;57.55;;;;;;;13.51;100.00;101102.41;6127943;23;19998;-74
2022/10/14 07:19:08;;;;;;;125.05;54.30;;;;;;;13.52;100.00;101109.53;6128123;23;20009;-72
2022/10/14 07:21:33;;;;;;;126.72;58.05;;;;;;;13.63;100.00;101111.91;6102336;23;20009;-74
2022/10/14 07:23:58;;;;;;;134.90;57.38;;;;;;;13.56;100.00;101106.31;6100636;23;19998;-74
2022/10/14 07:26:25;;;;;;;125.60;57.55;;;;;;;13.67;100.00;101112.41;6128536;23;20063;-73
2022/10/14 07:28:51;;;;;;;134.23;61.35;;;;;;;13.73;100.00;101106.28;6101923;23;20140;-74
2022/10/14 07:31:18;;;;;;;132.77;61.70;;;;;;;13.75;100.00;101110.50;6126369;23;20445;-73
2022/10/14 07:33:44;;;;;;;122.65;60.70;;;;;;;13.88;100.00;101103.69;6101808;23;20029;-73
2022/10/14 07:36:14;;;;;;;127.30;59.13;;;;;;;13.96;100.00;101111.84;6067626;23;20120;-73
2022/10/14 07:38:40;;;;;;;134.88;59.63;;;;;;;14.01;100.00;101109.44;6101635;23;20070;-72
2022/10/14 07:41:15;;;;;;;124.93;59.17;;;;;;;14.11;100.00;101110.94;6128577;23;20002;-74
2022/10/14 07:43:42;;;;;;;121.82;57.13;;;;;;;14.17;100.00;101106.66;6101820;23;20075;-74
2022/10/14 07:46:09;;;;;;;123.43;57.83;;;;;;;13.75;100.00;101107.78;6116331;23;20033;-74
2022/10/14 07:48:35;;;;;;;142.38;57.85;;;;;;;13.74;100.00;101106.09;6128459;23;20014;-74
2022/10/14 07:51:01;;;;;;;120.55;57.25;;;;;;;14.02;100.00;101116.59;6127555;23;20084;-74
2022/10/14 07:53:27;;;;;;;111.40;56.47;;;;;;;13.78;100.00;101110.19;6127932;23;20038;-74
2022/10/14 07:55:56;;;;;;;107.25;55.33;;;;;;;13.86;100.00;101112.03;6129428;23;20001;-74
2022/10/14 07:58:24;;;;;;;111.72;52.53;;;;;;;14.11;100.00;101116.38;6101863;23;20004;-74
2022/10/14 08:00:50;;;;;;;104.03;54.30;;;;;;;14.04;100.00;101114.53;6101868;23;20073;-74
2022/10/14 08:03:17;;;;;;;108.43;55.50;;;;;;;13.81;100.00;101125.31;6102672;23;20006;-74
2022/10/14 08:05:42;;;;;;;111.50;54.88;;;;;;;13.89;100.00;101116.25;6128453;23;20106;-75
2022/10/14 08:08:08;;;;;;;98.47;50.25;;;;;;;13.95;100.00;101118.28;6103389;23;19998;-75
2022/10/14 08:10:34;;;;;;;107.22;56.15;;;;;;;14.11;100.00;101131.88;6128064;23;19997;-73
2022/10/14 08:12:59;;;;;;;98.72;52.90;;;;;;;13.93;100.00;101123.91;6101003;23;20001;-74
2022/10/14 08:15:27;;;;;;;96.95;49.55;;;;;;;14.12;100.00;101123.53;6102270;23;20014;-74
2022/10/14 08:17:53;;;;;;;92.97;51.08;;;;;;;13.98;100.00;101126.13;6102085;23;20002;-74
2022/10/14 08:20:18;;;;;;;92.53;50.80;;;;;;;14.22;100.00;101128.78;6126813;23;20001;-74
2022/10/14 08:22:44;;;;;;;88.22;48.42;;;;;;;14.21;99.82;101121.59;6101827;23;20418;-75
2022/10/14 08:25:10;;;;;;;87.32;44.97;;;;;;;14.30;98.21;101125.16;6125872;23;20029;-75
2022/10/14 08:27:35;;;;;;;76.57;46.80;;;;;;;14.13;96.91;101125.22;6101387;23;20010;-73
2022/10/14 08:30:01;;;;;;;81.60;45.17;;;;;;;14.12;98.57;101122.69;6100937;23;20048;-73
2022/10/14 08:32:26;;;;;;;74.45;40.13;;;;;;;14.44;96.16;101131.75;6099383;23;20005;-75
2022/10/14 08:34:51;;;;;;;69.97;42.47;;;;;;;14.61;95.98;101122.50;6101821;23;20014;-74
2022/10/14 08:37:17;;;;;;;71.60;41.33;;;;;;;14.79;94.37;101119.50;6100804;23;20009;-74
2022/10/14 08:39:42;;;;;;;65.05;40.92;;;;;;;14.53;93.56;101119.81;6126187;23;20097;-73
2022/10/14 08:42:35;;;;;;;62.83;40.72;;;;;;;14.26;93.79;101119.22;6100473;23;19998;-73
2022/10/14 08:45:10;;;;;;;66.63;35.75;;;;;;;14.39;92.96;101115.94;6099882;23;20017;-72
2022/10/14 08:47:39;;;;;;;60.33;35.75;;;;;;;14.82;91.49;101114.53;6126549;23;20016;-73
2022/10/14 08:50:22;;;;;;;51.05;33.78;;;;;;;14.85;90.05;101125.06;6101051;23;20461;-74
2022/10/14 08:52:53;;;;;;;56.17;33.50;;;;;;;15.00;89.56;101121.59;6100004;23;20001;-74
2022/10/14 08:55:36;;;;;;;56.35;33.58;;;;;;;15.03;89.28;101104.84;6127718;23;20114;-74
2022/10/14 08:58:11;;;;;;;48.05;31.90;;;;;;;15.12;87.53;101109.22;6126784;23;20060;-73
2022/10/14 09:00:40;;;;;;;50.88;30.05;;;;;;;14.93;88.59;101100.50;6126002;23;20006;-73
2022/10/14 09:03:15;;;;;;;50.00;30.27;;;;;;;14.98;87.36;101107.28;6123516;23;20077;-74
2022/10/14 09:05:41;;;;;;;49.55;31.52;;;;;;;14.95;88.20;101096.75;6096917;23;20053;-74
2022/10/14 09:08:14;;;;;;;53.42;29.83;;;;;;;15.24;88.07;101090.53;6123623;23;20053;-72
2022/10/14 09:10:41;;;;;;;59.90;29.63;;;;;;;15.52;85.88;101088.06;6098462;23;20039;-73
2022/10/14 09:13:38;;;;;;;40.95;28.15;;;;;;;15.59;85.11;101084.44;6097707;23;20050;-73
2022/10/14 09:16:18;;;;;;;46.92;30.15;;;;;;;15.21;86.73;101086.31;6086208;23;20006;-75
2022/10/14 09:18:49;;;;;;;42.92;27.23;;;;;;;15.60;85.59;101079.81;6123796;23;20017;-73
2022/10/14 09:21:23;;;;;;;41.85;26.85;;;;;;;15.81;85.42;101082.69;6098342;23;20121;-72
2022/10/14 09:23:57;;;;;;;54.05;30.88;;;;;;;16.02;83.19;101073.72;6099955;23;20045;-73
2022/10/14 09:26:26;;;;;;;49.75;29.48;;;;;;;16.38;83.02;101078.41;6101055;23;20006;-73
2022/10/14 09:28:53;;;;;;;48.45;28.17;;;;;;;16.63;82.05;101081.66;6125527;23;20069;-74
2022/10/14 09:31:19;;;;;;;39.67;26.88;;;;;;;16.79;80.97;101081.44;6099793;23;20008;-73
2022/10/14 09:33:45;;;;;;;47.15;29.50;;;;;;;16.71;80.85;101073.38;6101008;23;20034;-73
2022/10/14 09:36:16;;;;;;;52.65;29.40;;;;;;;16.97;79.29;101081.00;6099632;23;20009;-73
2022/10/14 09:38:45;;;;;;;45.45;28.50;;;;;;;16.75;80.92;101085.59;6100128;23;20040;-73
2022/10/14 09:41:15;;;;;;;46.20;28.52;;;;;;;16.63;80.46;101079.78;6126256;23;20010;-73
2022/10/14 09:44:18;;;;;;;43.53;28.07;;;;;;;16.44;80.91;101078.50;6099888;23;20084;-74
2022/10/14 09:46:51;;;;;;;50.08;28.65;;;;;;;16.12;82.41;101079.78;6086604;23;20009;-73
2022/10/14 09:49:31;;;;;;;50.50;30.52;;;;;;;16.20;82.39;101081.53;6125654;23;20001;-73
2022/10/14 09:51:57;;;;;;;50.17;28.30;;;;;;;15.95;82.31;101079.09;6125662;23;19998;-73
2022/10/14 09:54:27;;;;;;;44.08;29.20;;;;;;;16.30;81.71;101076.66;6120066;23;20016;-73
2022/10/14 09:57:07;;;;;;;46.75;26.65;;;;;;;16.18;82.45;101078.16;6124208;23;20026;-73
2022/10/14 09:59:46;;;;;;;46.15;30.15;;;;;;;16.25;81.85;101074.47;6125327;23;20033;-74
2022/10/14 10:02:43;;;;;;;45.80;29.98;;;;;;;15.97;84.01;101071.59;6125672;23;20002;-74
2022/10/14 10:05:24;;;;;;;48.50;29.98;;;;;;;15.91;83.47;101072.34;6124346;23;20084;-73
2022/10/14 10:08:14;;;;;;;46.23;30.47;;;;;;;16.04;83.27;101070.81;6124703;23;20005;-73
2022/10/14 10:10:40;;;;;;;42.53;28.25;;;;;;;15.97;82.20;101066.13;6126907;23;19994;-73
2022/10/14 10:13:21;;;;;;;47.45;28.25;;;;;;;15.89;83.39;101062.63;6123567;23;20057;-74
2022/10/14 10:15:58;;;;;;;48.83;31.02;;;;;;;15.68;83.37;101061.50;6124527;23;20009;-73
2022/10/14 10:18:24;;;;;;;41.90;26.67;;;;;;;15.84;84.34;101060.44;6123759;23;20038;-73
2022/10/14 10:21:13;;;;;;;53.00;31.73;;;;;;;15.70;84.15;101053.09;6124862;23;20017;-72
2022/10/14 10:23:50;;;;;;;53.17;29.38;;;;;;;16.02;83.44;101058.19;6125682;23;20012;-73
2022/10/14 10:26:24;;;;;;;56.33;34.67;;;;;;;15.68;85.15;101049.72;6124114;23;20397;-73
2022/10/14 10:28:51;;;;;;;55.50;32.28;;;;;;;15.68;84.74;101055.19;6124192;23;20001;-72
2022/10/14 10:31:48;;;;;;;50.97;33.65;;;;;;;15.59;85.60;101053.56;6124931;23;20002;-73
2022/10/14 10:34:20;;;;;;;54.97;32.13;;;;;;;15.73;84.79;101053.59;6123048;23;20009;-73
2022/10/14 10:36:53;;;;;;;50.33;32.45;;;;;;;15.52;85.84;101049.84;6123714;23;20021;-73
2022/10/14 10:39:41;;;;;;;50.30;31.00;;;;;;;15.62;85.18;101050.47;6123922;23;19998;-73
2022/10/14 10:42:28;;;;;;;43.38;28.50;;;;;;;15.71;83.64;101049.34;6123962;23;20006;-72
2022/10/14 10:45:29;;;;;;;49.78;29.55;;;;;;;15.64;84.43;101053.84;6125417;23;20002;-72
2022/10/14 10:48:06;;;;;;;47.50;28.02;;;;;;;16.20;82.48;101048.75;6112956;23;20060;-73
2022/10/14 10:50:56;;;;;;;45.63;27.65;;;;;;;16.30;81.05;101032.94;6123593;23;20041;-74
2022/10/14 10:53:35;;;;;;;39.17;25.98;;;;;;;16.05;82.03;101037.03;6124708;23;20054;-72
2022/10/14 10:56:19;;;;;;;43.78;27.58;;;;;;;16.00;80.61;101038.44;6124972;23;20010;-72
2022/10/14 10:59:37;;;;;;;41.53;26.55;;;;;;;15.57;83.33;101037.34;6123464;23;20065;-72
2022/10/14 11:02:25;;;;;;;38.78;24.92;;;;;;;15.70;81.88;101031.28;6106510;23;20014;-74
2022/10/14 11:05:05;;;;;;;35.53;23.92;;;;;;;15.76;82.40;101030.50;6125306;23;20149;-73
2022/10/14 11:13:55;;;;;;;51.35;25.33;;;;;;;15.72;82.06;101024.59;6124218;23;20045;-73
2022/10/14 11:16:43;;;;;;;37.45;24.98;;;;;;;15.93;80.84;101023.84;6123821;23;20008;-73
2022/10/14 11:19:26;;;;;;;41.38;25.85;;;;;;;16.08;80.82;101020.25;6124144;23;20031;-73